AirNav   Air Wisconsin pilot careers
 
 379 users online  

3F4 Vivian Airport
Vivian, Louisiana, USA

GOING TO VIVIAN?


FAA INFORMATION EFFECTIVE 29 MARCH 2018

Location

FAA Identifier: 3F4
Lat/Long: 32-51-40.8000N / 094-00-36.5530W
32-51.680000N / 094-00.609217W
32.8613333 / -94.0101536
(estimated)
Elevation: 260 ft. / 79.2 m (surveyed)
Variation: 02E (2010)
From city: 2 miles SW of VIVIAN, LA
Time zone: UTC -5 (UTC -6 during Standard Time)
Zip code: 71082

Airport Operations

Airport use: Open to the public
Activation date: 02/1960
Control tower: no
ARTCC: FORT WORTH CENTER
FSS: DE RIDDER FLIGHT SERVICE STATION
NOTAMs facility: DRI (NOTAM-D service available)
Attendance: MON-SAT DAWN-DUSK
Wind indicator: lighted
Segmented circle: no
Lights: MIRL RY 09/27 AND REIL RY 09 PRESET LOW INTST DUSK-DAWN; TO INCR INTST ACTVT - CTAF.
Beacon: white-green (lighted land airport)
Operates sunset to sunrise.

Airport Communications

CTAF/UNICOM: 122.8
SHREVEPORT APPROACH: 119.9
SHREVEPORT DEPARTURE: 119.9
  • DURG HRS 0000-0600 APCH/DEP SVC IS PRVDD ON FREQS 121.4/381.6; OTHER TIMES PRIMARY APCH/DEP FREQS APPLY.

Nearby radio navigation aids

VOR radial/distance  VOR name  Freq  Var
EICr291/11.4BELCHER VORTAC117.4007E
EMGr316/34.7ELM GROVE VORTAC111.2007E
TXKr168/39.3TEXARKANA VORTAC116.3007E

 
NDB name  Hdg/Dist  Freq  Var  ID
ATLANTA144/17.234704EATA .- - .-

Airport Services

Fuel available: 100LL
FUEL AVBL 24 HRS SELF SVC WITH CREDIT CARD.
Parking: hangars and tiedowns
Airframe service: MAJOR
Powerplant service: MAJOR
Bottled oxygen: NONE
Bulk oxygen: NONE

Runway Information

Runway 9/27

Dimensions: 2998 x 75 ft. / 914 x 23 m
Surface: asphalt, in good condition
Weight bearing capacity: 
Single wheel: 12.0
Runway edge lights: medium intensity
RUNWAY 9  RUNWAY 27
Latitude: 32-51.678283N32-51.681517N
Longitude: 094-00.902067W094-00.316267W
Elevation: 247.0 ft.259.0 ft.
Gradient: 0.4%0.4%
Traffic pattern: leftleft
Runway heading: 088 magnetic, 090 true268 magnetic, 270 true
Markings: nonprecision, in good conditionnonprecision, in good condition
Visual slope indicator: 2-light PAPI on left (3.00 degrees glide path)
Runway end identifier lights: yes
Touchdown point: yes, no lightsyes, no lights
Obstructions: 111 ft. trees, 2198 ft. from runway, 283 ft. right of centerline, 16:1 slope to clear89 ft. trees, 1727 ft. from runway, 17:1 slope to clear

Airport Ownership and Management from official FAA records

Ownership: Publicly-owned
Owner: TOWN OF VIVIAN
P. O. BOX 832
VIVIAN, LA 71082
Phone 318-375-3856
Manager: MR. MARTY MUSICK
P. O. BOX 648
VIVIAN, LA 71082
Phone 318-375-5427

Airport Operational Statistics

Aircraft based on the field: 12
Single engine airplanes: 10
Helicopters: 1
Ultralights: 1
    
Aircraft operations: avg 30/day *
73% transient general aviation
27% local general aviation
<1% military
* for 12-month period ending 28 September 2017

Additional Remarks

GCO AVBL ON FREQ 135.075 THRU BAD APCH CTL AND FLT SVCS.
PARACHUTE ACTIVITY INVOF ARPT.

Instrument Procedures

NOTE: All procedures below are presented as PDF files. If you need a reader for these files, you should download the free Adobe Reader.

NOT FOR NAVIGATION. Please procure official charts for flight.
FAA instrument procedures published for use from 29 March 2018 at 0901Z to 26 April 2018 at 0900Z.

 
IAPs - Instrument Approach Procedures
RNAV (GPS) RWY 09   download (187KB)
RNAV (GPS) RWY 27   download (172KB)
VOR/DME-A   download (141KB)
NOTE: Special Take-Off Minimums/Departure Procedures apply   download (116KB)

Other nearby airports with instrument procedures:

KATA - Hall-Miller Municipal Airport (17 nm NW)
KDTN - Shreveport Downtown Airport (23 nm SE)
KASL - Harrison County Airport (25 nm SW)
KSHV - Shreveport Regional Airport (27 nm S)
KBAD - Barksdale Air Force Base (28 nm SE)
 
Loc | Ops | Rwys | IFR | FBO | Links
Com | Nav | Svcs | Stats | Notes

AirNav Hotels Sweepstakes
 
Area around 3F4 (Vivian Airport)
 
Road maps at: MapQuest Bing Google
 
Aerial photo
WARNING: Photo may not be current or correct
Aerial photo of 3F4 (Vivian Airport)
Photo by Carl Hennigan
Taken in May 2007

Do you have a better or more recent aerial photo of Vivian Airport that you would like to share? If so, please send us your photo.

 
Sectional chart

 
Airport distance calculator
Flying to Vivian Airport? Find the distance to fly.

From to 3F4

Sunrise and sunset
Times for 26-Apr-2018
 Local
(UTC-5)
 Zulu
(UTC)
Morning civil twilight06:0911:09
Sunrise06:3511:35
Sunset19:5300:53
Evening civil twilight20:1901:19

Current date and time
Zulu (UTC)  26-Apr-2018 06:35:36
Local (UTC-5)  26-Apr-2018 01:35:36
 
METAR
KDTN 
23nm SE 
260553Z AUTO 29008KT 10SM FEW018 FEW120 12/10 A3000 RMK AO2 SLP158 60004 T01220100 10189 20122 402720122 58002
KASL 
25nm SW 
260615Z AUTO 31006KT 10SM CLR 10/09 A3004 RMK AO1 T01000085
KSHV 
26nm S 
260556Z 31011KT 10SM FEW120 12/11 A3000 RMK AO2 SLP157 60004 T01170106 10189 20117 402780111 58003
KBAD 
28nm SE 
260556Z AUTO 32011KT 10SM BKN120 12/10 A2999 RMK AO2 SLP158 60005 T01170103 10184 20117 402610105 58003
KTXK 
35nm N 
260553Z AUTO 29008KT 10SM BKN040 11/09 A2999 RMK AO2 SLP153 6//// T01060094 10133 20106 401940106 58011 $
KMNE 
38nm E 
260615Z AUTO 29005KT 10SM BKN012 OVC019 12/11 A2999 RMK AO2 T01210107
TAF
KSHV 
26nm S 
260540Z 2606/2706 31010KT P6SM FEW022 SCT120 TEMPO 2606/2609 BKN030 FM260900 31008KT P6SM SCT030 TEMPO 2609/2613 BKN030 FM261700 33008KT P6SM SCT040 FM270000 33004KT P6SM SCT045 SCT250
KBAD 
28nm SE 
260334Z 2603/2708 33009KT 8000 -SHRA SCT012 BKN040 QNH2992INS BECMG 2603/2604 30012KT 8000 -SHRA BKN010 QNH2993INS BECMG 2605/2606 31009KT 9999 NSW BKN010 QNH2994INS BECMG 2614/2615 31012KT 9999 SCT020 QNH2995INS BECMG 2623/2624 32006KT 9999 SCT030 QNH2997INS TX22/2621Z TN09/2612Z LAST NO AMDS AFT 2604 NEXT 2610
NOTAMs
Click for the latest NOTAMs
NOTAMs are issued by the DoD/FAA and will open in a separate window not controlled by AirNav.

 

 
 

FBO, Fuel Providers, and Aircraft Ground Support

  
 Business Name 
 
 Contact 
 
 Services / Description 
 
Fuel Prices
 
Comments
  
 Town of Vivian
318-375-3856
[web site]
[email]

Like us on facebook
Airport management, Aviation fuel, Aircraft parking (ramp or tiedown), Hangars, Hangar leasing / sales, Passenger terminal and lounge, Courtesy transportation, Restrooms

More info about Town of Vivian
Shell
100LL
SS $3.65 
 Updated 17-Apr-2018
 
   1 read write
SS=Self service
Update Fuel Prices
 

Would you like to see your business listed on this page?

 If your business provides an interesting product or service to pilots, flight crews, aircraft, or users of the Vivian Airport, you should consider listing it here.  To start the listing process, click on the button below
 
Add a business
 

Other Pages about Vivian Airport

www.vivian.la.us
 
Update a link
 
Copyright © AirNav, LLC. All rights reserved. Privacy Policy  Contact